sensor_id;sensor_type;location;lat;lon;timestamp;temperature;humidity
39019;DHT22;24786;51.984;5.872;2022-08-30T00:01:43;16.70;99.90
39019;DHT22;24786;51.984;5.872;2022-08-30T00:04:08;16.80;99.90
39019;DHT22;24786;51.984;5.872;2022-08-30T00:06:34;16.70;99.90
39019;DHT22;24786;51.984;5.872;2022-08-30T00:09:06;16.70;99.90
39019;DHT22;24786;51.984;5.872;2022-08-30T00:11:31;16.80;99.90
39019;DHT22;24786;51.984;5.872;2022-08-30T00:13:57;16.70;99.90
39019;DHT22;24786;51.984;5.872;2022-08-30T00:16:23;16.70;99.90
39019;DHT22;24786;51.984;5.872;2022-08-30T00:18:50;16.70;99.90
39019;DHT22;24786;51.984;5.872;2022-08-30T00:21:16;16.70;99.90
39019;DHT22;24786;51.984;5.872;2022-08-30T00:23:47;16.70;99.90
39019;DHT22;24786;51.984;5.872;2022-08-30T00:26:13;16.70;99.90
39019;DHT22;24786;51.984;5.872;2022-08-30T00:28:42;16.60;99.90
39019;DHT22;24786;51.984;5.872;2022-08-30T00:31:08;16.60;99.90
39019;DHT22;24786;51.984;5.872;2022-08-30T00:33:33;16.60;99.90
39019;DHT22;24786;51.984;5.872;2022-08-30T00:36:05;16.60;99.90
39019;DHT22;24786;51.984;5.872;2022-08-30T00:38:30;16.60;99.90
39019;DHT22;24786;51.984;5.872;2022-08-30T00:40:56;16.60;99.90
39019;DHT22;24786;51.984;5.872;2022-08-30T00:43:32;16.50;99.90
39019;DHT22;24786;51.984;5.872;2022-08-30T00:46:00;16.50;99.90
39019;DHT22;24786;51.984;5.872;2022-08-30T00:48:29;16.50;99.90
39019;DHT22;24786;51.984;5.872;2022-08-30T00:51:07;16.50;99.90
39019;DHT22;24786;51.984;5.872;2022-08-30T00:53:43;16.40;99.90
39019;DHT22;24786;51.984;5.872;2022-08-30T00:56:11;16.40;99.90
39019;DHT22;24786;51.984;5.872;2022-08-30T00:58:46;16.40;99.90
39019;DHT22;24786;51.984;5.872;2022-08-30T01:01:13;16.40;99.90
39019;DHT22;24786;51.984;5.872;2022-08-30T01:03:43;16.40;99.90
39019;DHT22;24786;51.984;5.872;2022-08-30T01:06:15;16.40;99.90
39019;DHT22;24786;51.984;5.872;2022-08-30T01:08:42;16.40;99.90
39019;DHT22;24786;51.984;5.872;2022-08-30T01:11:08;16.40;99.90
39019;DHT22;24786;51.984;5.872;2022-08-30T01:13:47;16.40;99.90
39019;DHT22;24786;51.984;5.872;2022-08-30T01:16:15;16.40;99.90
39019;DHT22;24786;51.984;5.872;2022-08-30T01:18:43;16.30;99.90
39019;DHT22;24786;51.984;5.872;2022-08-30T01:23:54;16.40;99.90
39019;DHT22;24786;51.984;5.872;2022-08-30T01:26:21;16.40;99.90
39019;DHT22;24786;51.984;5.872;2022-08-30T01:28:52;16.30;99.90
39019;DHT22;24786;51.984;5.872;2022-08-30T01:31:19;16.30;99.90
39019;DHT22;24786;51.984;5.872;2022-08-30T01:33:48;16.30;99.90
39019;DHT22;24786;51.984;5.872;2022-08-30T01:36:14;16.30;99.90
39019;DHT22;24786;51.984;5.872;2022-08-30T01:38:49;16.30;99.90
39019;DHT22;24786;51.984;5.872;2022-08-30T01:43:48;16.20;99.90
39019;DHT22;24786;51.984;5.872;2022-08-30T01:46:16;16.20;99.90
39019;DHT22;24786;51.984;5.872;2022-08-30T01:48:43;16.20;99.90
39019;DHT22;24786;51.984;5.872;2022-08-30T01:51:27;16.20;99.90
39019;DHT22;24786;51.984;5.872;2022-08-30T01:53:53;16.10;99.90
39019;DHT22;24786;51.984;5.872;2022-08-30T01:56:19;16.20;99.90
39019;DHT22;24786;51.984;5.872;2022-08-30T01:58:45;16.20;99.90
39019;DHT22;24786;51.984;5.872;2022-08-30T02:01:19;16.20;99.90
39019;DHT22;24786;51.984;5.872;2022-08-30T02:04:02;16.20;99.90
39019;DHT22;24786;51.984;5.872;2022-08-30T02:06:28;16.20;99.90
39019;DHT22;24786;51.984;5.872;2022-08-30T02:08:53;16.10;99.90
39019;DHT22;24786;51.984;5.872;2022-08-30T02:11:19;16.10;99.90
39019;DHT22;24786;51.984;5.872;2022-08-30T02:13:46;16.00;99.90
39019;DHT22;24786;51.984;5.872;2022-08-30T02:16:22;16.00;99.90
39019;DHT22;24786;51.984;5.872;2022-08-30T02:18:50;16.00;99.90
39019;DHT22;24786;51.984;5.872;2022-08-30T02:21:31;16.00;99.90
39019;DHT22;24786;51.984;5.872;2022-08-30T02:23:56;16.00;99.90
39019;DHT22;24786;51.984;5.872;2022-08-30T02:26:23;16.00;99.90
39019;DHT22;24786;51.984;5.872;2022-08-30T02:28:49;15.90;99.90
39019;DHT22;24786;51.984;5.872;2022-08-30T02:31:15;15.80;99.90
39019;DHT22;24786;51.984;5.872;2022-08-30T02:33:41;15.80;99.90
39019;DHT22;24786;51.984;5.872;2022-08-30T02:36:07;15.80;99.90
39019;DHT22;24786;51.984;5.872;2022-08-30T02:38:33;15.80;99.90
39019;DHT22;24786;51.984;5.872;2022-08-30T02:40:59;15.80;99.90
39019;DHT22;24786;51.984;5.872;2022-08-30T02:43:25;15.80;99.90
39019;DHT22;24786;51.984;5.872;2022-08-30T02:45:51;15.70;99.90
39019;DHT22;24786;51.984;5.872;2022-08-30T02:48:17;15.70;99.90
39019;DHT22;24786;51.984;5.872;2022-08-30T02:50:46;15.70;99.90
39019;DHT22;24786;51.984;5.872;2022-08-30T02:53:12;15.70;99.90
39019;DHT22;24786;51.984;5.872;2022-08-30T02:55:38;15.70;99.90
39019;DHT22;24786;51.984;5.872;2022-08-30T02:58:04;15.70;99.90
39019;DHT22;24786;51.984;5.872;2022-08-30T03:00:31;15.60;99.90
39019;DHT22;24786;51.984;5.872;2022-08-30T03:02:57;15.60;99.90
39019;DHT22;24786;51.984;5.872;2022-08-30T03:05:23;15.60;99.90
39019;DHT22;24786;51.984;5.872;2022-08-30T03:07:49;15.60;99.90
39019;DHT22;24786;51.984;5.872;2022-08-30T03:10:15;15.60;99.90
39019;DHT22;24786;51.984;5.872;2022-08-30T03:12:42;15.50;99.90
39019;DHT22;24786;51.984;5.872;2022-08-30T03:15:10;15.50;99.90
39019;DHT22;24786;51.984;5.872;2022-08-30T03:17:37;15.50;99.90
39019;DHT22;24786;51.984;5.872;2022-08-30T03:20:04;15.50;99.90
39019;DHT22;24786;51.984;5.872;2022-08-30T03:22:30;15.50;99.90
39019;DHT22;24786;51.984;5.872;2022-08-30T03:24:56;15.50;99.90
39019;DHT22;24786;51.984;5.872;2022-08-30T03:27:26;15.50;99.90
39019;DHT22;24786;51.984;5.872;2022-08-30T03:29:52;15.40;99.90
39019;DHT22;24786;51.984;5.872;2022-08-30T03:32:18;15.50;99.90
39019;DHT22;24786;51.984;5.872;2022-08-30T03:34:43;15.40;99.90
39019;DHT22;24786;51.984;5.872;2022-08-30T03:37:09;15.40;99.90
39019;DHT22;24786;51.984;5.872;2022-08-30T03:39:35;15.40;99.90
39019;DHT22;24786;51.984;5.872;2022-08-30T03:42:00;15.40;99.90
39019;DHT22;24786;51.984;5.872;2022-08-30T03:44:26;15.40;99.90
39019;DHT22;24786;51.984;5.872;2022-08-30T03:46:52;15.40;99.90
39019;DHT22;24786;51.984;5.872;2022-08-30T03:49:18;15.30;99.90
39019;DHT22;24786;51.984;5.872;2022-08-30T03:51:44;15.30;99.90
39019;DHT22;24786;51.984;5.872;2022-08-30T03:54:09;15.40;99.90
39019;DHT22;24786;51.984;5.872;2022-08-30T03:56:38;15.30;99.90
39019;DHT22;24786;51.984;5.872;2022-08-30T03:59:03;15.30;99.90
39019;DHT22;24786;51.984;5.872;2022-08-30T04:01:29;15.30;99.90
39019;DHT22;24786;51.984;5.872;2022-08-30T04:03:55;15.30;99.90
39019;DHT22;24786;51.984;5.872;2022-08-30T04:06:21;15.30;99.90
39019;DHT22;24786;51.984;5.872;2022-08-30T04:08:47;15.30;99.90
39019;DHT22;24786;51.984;5.872;2022-08-30T04:11:12;15.30;99.90
39019;DHT22;24786;51.984;5.872;2022-08-30T04:13:40;15.30;99.90
39019;DHT22;24786;51.984;5.872;2022-08-30T04:16:05;15.30;99.90
39019;DHT22;24786;51.984;5.872;2022-08-30T04:18:31;15.20;99.90
39019;DHT22;24786;51.984;5.872;2022-08-30T04:20:56;15.20;99.90
39019;DHT22;24786;51.984;5.872;2022-08-30T04:23:22;15.20;99.90
39019;DHT22;24786;51.984;5.872;2022-08-30T04:25:48;15.20;99.90
39019;DHT22;24786;51.984;5.872;2022-08-30T04:28:13;15.20;99.90
39019;DHT22;24786;51.984;5.872;2022-08-30T04:30:41;15.20;99.90
39019;DHT22;24786;51.984;5.872;2022-08-30T04:33:07;15.20;99.90
39019;DHT22;24786;51.984;5.872;2022-08-30T04:35:49;15.20;99.90
39019;DHT22;24786;51.984;5.872;2022-08-30T04:38:16;15.20;99.90
39019;DHT22;24786;51.984;5.872;2022-08-30T04:40:46;15.10;99.90
39019;DHT22;24786;51.984;5.872;2022-08-30T04:43:13;15.20;99.90
39019;DHT22;24786;51.984;5.872;2022-08-30T04:45:40;15.10;99.90
39019;DHT22;24786;51.984;5.872;2022-08-30T04:48:06;15.10;99.90
39019;DHT22;24786;51.984;5.872;2022-08-30T04:50:32;15.10;99.90
39019;DHT22;24786;51.984;5.872;2022-08-30T04:53:18;15.20;99.90
39019;DHT22;24786;51.984;5.872;2022-08-30T04:55:46;15.10;99.90
39019;DHT22;24786;51.984;5.872;2022-08-30T04:58:12;15.10;99.90
39019;DHT22;24786;51.984;5.872;2022-08-30T05:00:38;15.10;99.90
39019;DHT22;24786;51.984;5.872;2022-08-30T05:03:15;15.00;99.90
39019;DHT22;24786;51.984;5.872;2022-08-30T05:05:55;15.10;99.90
39019;DHT22;24786;51.984;5.872;2022-08-30T05:08:21;15.10;99.90
39019;DHT22;24786;51.984;5.872;2022-08-30T05:10:49;15.10;99.90
39019;DHT22;24786;51.984;5.872;2022-08-30T05:13:25;15.10;99.90
39019;DHT22;24786;51.984;5.872;2022-08-30T05:16:05;15.20;99.90
39019;DHT22;24786;51.984;5.872;2022-08-30T05:18:31;15.20;99.90
39019;DHT22;24786;51.984;5.872;2022-08-30T05:21:18;15.30;99.90
39019;DHT22;24786;51.984;5.872;2022-08-30T05:23:44;15.30;99.90
39019;DHT22;24786;51.984;5.872;2022-08-30T05:26:31;15.30;99.90
39019;DHT22;24786;51.984;5.872;2022-08-30T05:29:03;15.30;99.90
39019;DHT22;24786;51.984;5.872;2022-08-30T05:31:44;15.40;99.90
39019;DHT22;24786;51.984;5.872;2022-08-30T05:34:09;15.50;99.90
39019;DHT22;24786;51.984;5.872;2022-08-30T05:36:44;15.50;99.90
39019;DHT22;24786;51.984;5.872;2022-08-30T05:39:10;15.70;99.90
39019;DHT22;24786;51.984;5.872;2022-08-30T05:41:38;15.60;99.90
39019;DHT22;24786;51.984;5.872;2022-08-30T05:44:05;15.80;99.90
39019;DHT22;24786;51.984;5.872;2022-08-30T05:46:40;15.80;99.90
39019;DHT22;24786;51.984;5.872;2022-08-30T05:49:24;15.80;99.90
39019;DHT22;24786;51.984;5.872;2022-08-30T05:51:50;15.90;99.90
39019;DHT22;24786;51.984;5.872;2022-08-30T05:54:16;15.90;99.90
39019;DHT22;24786;51.984;5.872;2022-08-30T05:56:43;16.00;99.90
39019;DHT22;24786;51.984;5.872;2022-08-30T05:59:13;16.00;99.90
39019;DHT22;24786;51.984;5.872;2022-08-30T06:01:42;16.10;99.90
39019;DHT22;24786;51.984;5.872;2022-08-30T06:04:09;16.10;99.90
39019;DHT22;24786;51.984;5.872;2022-08-30T06:06:38;16.20;99.90
39019;DHT22;24786;51.984;5.872;2022-08-30T06:09:07;16.30;99.90
39019;DHT22;24786;51.984;5.872;2022-08-30T06:11:33;16.40;99.90
39019;DHT22;24786;51.984;5.872;2022-08-30T06:14:00;16.50;99.90
39019;DHT22;24786;51.984;5.872;2022-08-30T06:16:26;16.50;99.90
39019;DHT22;24786;51.984;5.872;2022-08-30T06:18:53;16.60;99.90
39019;DHT22;24786;51.984;5.872;2022-08-30T06:21:21;16.60;99.90
39019;DHT22;24786;51.984;5.872;2022-08-30T06:23:47;16.70;99.90
39019;DHT22;24786;51.984;5.872;2022-08-30T06:26:13;16.70;99.90
39019;DHT22;24786;51.984;5.872;2022-08-30T06:28:39;16.80;99.90
39019;DHT22;24786;51.984;5.872;2022-08-30T06:31:06;16.90;99.90
39019;DHT22;24786;51.984;5.872;2022-08-30T06:33:33;16.90;99.90
39019;DHT22;24786;51.984;5.872;2022-08-30T06:36:03;17.00;99.90
39019;DHT22;24786;51.984;5.872;2022-08-30T06:38:29;17.00;99.90
39019;DHT22;24786;51.984;5.872;2022-08-30T06:40:54;17.10;99.90
39019;DHT22;24786;51.984;5.872;2022-08-30T06:43:20;17.10;99.90
39019;DHT22;24786;51.984;5.872;2022-08-30T06:45:45;17.10;99.90
39019;DHT22;24786;51.984;5.872;2022-08-30T06:48:11;17.20;99.90
39019;DHT22;24786;51.984;5.872;2022-08-30T06:50:36;17.20;99.90
39019;DHT22;24786;51.984;5.872;2022-08-30T06:53:02;17.20;99.90
39019;DHT22;24786;51.984;5.872;2022-08-30T06:55:30;17.30;99.90
39019;DHT22;24786;51.984;5.872;2022-08-30T06:57:59;17.40;99.90
39019;DHT22;24786;51.984;5.872;2022-08-30T07:00:26;17.40;99.90
39019;DHT22;24786;51.984;5.872;2022-08-30T07:02:52;17.50;99.90
39019;DHT22;24786;51.984;5.872;2022-08-30T07:05:17;17.50;99.90
39019;DHT22;24786;51.984;5.872;2022-08-30T07:07:46;17.60;99.90
39019;DHT22;24786;51.984;5.872;2022-08-30T07:10:12;17.60;99.90
39019;DHT22;24786;51.984;5.872;2022-08-30T07:12:39;17.70;99.90
39019;DHT22;24786;51.984;5.872;2022-08-30T07:15:05;17.70;99.70
39019;DHT22;24786;51.984;5.872;2022-08-30T07:17:33;17.90;99.60
39019;DHT22;24786;51.984;5.872;2022-08-30T07:20:17;17.90;99.50
39019;DHT22;24786;51.984;5.872;2022-08-30T07:22:43;18.00;99.30
39019;DHT22;24786;51.984;5.872;2022-08-30T07:25:08;18.00;99.20
39019;DHT22;24786;51.984;5.872;2022-08-30T07:27:34;18.10;99.10
39019;DHT22;24786;51.984;5.872;2022-08-30T07:30:05;18.20;99.00
39019;DHT22;24786;51.984;5.872;2022-08-30T07:32:30;18.20;99.20
39019;DHT22;24786;51.984;5.872;2022-08-30T07:34:56;18.20;98.90
39019;DHT22;24786;51.984;5.872;2022-08-30T07:37:22;18.40;98.60
39019;DHT22;24786;51.984;5.872;2022-08-30T07:39:48;18.40;98.50
39019;DHT22;24786;51.984;5.872;2022-08-30T07:42:13;18.50;98.40
39019;DHT22;24786;51.984;5.872;2022-08-30T07:44:39;18.50;98.20
39019;DHT22;24786;51.984;5.872;2022-08-30T07:47:04;18.60;98.20
39019;DHT22;24786;51.984;5.872;2022-08-30T07:49:30;18.70;97.70
39019;DHT22;24786;51.984;5.872;2022-08-30T07:51:56;18.80;97.60
39019;DHT22;24786;51.984;5.872;2022-08-30T07:54:21;18.80;97.40
39019;DHT22;24786;51.984;5.872;2022-08-30T07:56:47;18.90;97.10
39019;DHT22;24786;51.984;5.872;2022-08-30T07:59:13;18.90;96.90
39019;DHT22;24786;51.984;5.872;2022-08-30T08:01:39;19.00;96.70
39019;DHT22;24786;51.984;5.872;2022-08-30T08:04:04;19.10;96.50
39019;DHT22;24786;51.984;5.872;2022-08-30T08:06:31;19.20;96.20
39019;DHT22;24786;51.984;5.872;2022-08-30T08:08:57;19.20;96.00
39019;DHT22;24786;51.984;5.872;2022-08-30T08:11:27;19.30;95.70
39019;DHT22;24786;51.984;5.872;2022-08-30T08:13:53;19.40;95.60
39019;DHT22;24786;51.984;5.872;2022-08-30T08:16:24;19.40;95.30
39019;DHT22;24786;51.984;5.872;2022-08-30T08:18:50;19.40;95.30
39019;DHT22;24786;51.984;5.872;2022-08-30T08:21:16;19.60;95.10
39019;DHT22;24786;51.984;5.872;2022-08-30T08:23:42;19.50;95.00
39019;DHT22;24786;51.984;5.872;2022-08-30T08:26:07;19.50;94.80
39019;DHT22;24786;51.984;5.872;2022-08-30T08:28:33;19.70;94.90
39019;DHT22;24786;51.984;5.872;2022-08-30T08:30:58;19.70;94.60
39019;DHT22;24786;51.984;5.872;2022-08-30T08:33:24;19.80;93.80
39019;DHT22;24786;51.984;5.872;2022-08-30T08:35:50;19.90;93.90
39019;DHT22;24786;51.984;5.872;2022-08-30T08:38:15;19.90;93.90
39019;DHT22;24786;51.984;5.872;2022-08-30T08:41:10;20.00;93.80
39019;DHT22;24786;51.984;5.872;2022-08-30T08:43:37;20.10;93.40
39019;DHT22;24786;51.984;5.872;2022-08-30T08:46:11;20.10;93.10
39019;DHT22;24786;51.984;5.872;2022-08-30T08:51:06;20.20;92.30
39019;DHT22;24786;51.984;5.872;2022-08-30T08:54:01;20.20;91.60
39019;DHT22;24786;51.984;5.872;2022-08-30T08:56:29;20.30;91.70
39019;DHT22;24786;51.984;5.872;2022-08-30T08:58:56;20.40;91.70
39019;DHT22;24786;51.984;5.872;2022-08-30T09:01:27;20.40;91.50
39019;DHT22;24786;51.984;5.872;2022-08-30T09:03:54;20.60;91.30
39019;DHT22;24786;51.984;5.872;2022-08-30T09:06:25;20.70;91.20
39019;DHT22;24786;51.984;5.872;2022-08-30T09:08:54;20.80;91.10
39019;DHT22;24786;51.984;5.872;2022-08-30T09:11:23;20.80;90.90
39019;DHT22;24786;51.984;5.872;2022-08-30T09:13:52;20.90;90.30
39019;DHT22;24786;51.984;5.872;2022-08-30T09:25:29;21.00;90.10
39019;DHT22;24786;51.984;5.872;2022-08-30T09:28:12;21.10;90.10
39019;DHT22;24786;51.984;5.872;2022-08-30T09:31:06;21.10;90.00
39019;DHT22;24786;51.984;5.872;2022-08-30T09:33:32;21.20;90.00
39019;DHT22;24786;51.984;5.872;2022-08-30T09:36:29;21.20;90.00
39019;DHT22;24786;51.984;5.872;2022-08-30T09:39:02;21.20;89.40
39019;DHT22;24786;51.984;5.872;2022-08-30T09:41:36;21.20;88.80
39019;DHT22;24786;51.984;5.872;2022-08-30T09:46:52;21.30;88.00
39019;DHT22;24786;51.984;5.872;2022-08-30T09:49:29;21.30;87.80
39019;DHT22;24786;51.984;5.872;2022-08-30T09:54:34;21.40;86.50
39019;DHT22;24786;51.984;5.872;2022-08-30T09:57:48;21.40;86.20
39019;DHT22;24786;51.984;5.872;2022-08-30T10:02:50;21.50;86.50
39019;DHT22;24786;51.984;5.872;2022-08-30T10:05:27;21.60;85.80
39019;DHT22;24786;51.984;5.872;2022-08-30T10:10:41;21.80;85.20
39019;DHT22;24786;51.984;5.872;2022-08-30T10:16:33;22.00;85.30
39019;DHT22;24786;51.984;5.872;2022-08-30T10:22:25;22.20;84.80
39019;DHT22;24786;51.984;5.872;2022-08-30T10:25:07;22.30;84.10
39019;DHT22;24786;51.984;5.872;2022-08-30T10:27:40;22.30;83.60
39019;DHT22;24786;51.984;5.872;2022-08-30T10:30:10;22.40;83.60
39019;DHT22;24786;51.984;5.872;2022-08-30T10:32:48;22.40;83.50
39019;DHT22;24786;51.984;5.872;2022-08-30T10:35:21;22.50;83.00
39019;DHT22;24786;51.984;5.872;2022-08-30T10:38:19;22.60;82.60
39019;DHT22;24786;51.984;5.872;2022-08-30T10:40:51;22.50;81.30
39019;DHT22;24786;51.984;5.872;2022-08-30T10:43:56;22.60;81.60
39019;DHT22;24786;51.984;5.872;2022-08-30T10:49:01;22.60;81.10
39019;DHT22;24786;51.984;5.872;2022-08-30T10:51:31;22.60;80.90
39019;DHT22;24786;51.984;5.872;2022-08-30T10:54:20;22.60;80.90
39019;DHT22;24786;51.984;5.872;2022-08-30T10:56:50;22.70;81.00
39019;DHT22;24786;51.984;5.872;2022-08-30T10:59:18;22.70;80.70
39019;DHT22;24786;51.984;5.872;2022-08-30T11:05:02;22.80;80.40
39019;DHT22;24786;51.984;5.872;2022-08-30T11:10:39;23.00;80.00
39019;DHT22;24786;51.984;5.872;2022-08-30T11:13:27;23.10;79.70
39019;DHT22;24786;51.984;5.872;2022-08-30T11:16:04;23.20;78.90
39019;DHT22;24786;51.984;5.872;2022-08-30T11:18:33;23.10;79.00
39019;DHT22;24786;51.984;5.872;2022-08-30T11:29:06;23.30;78.40
39019;DHT22;24786;51.984;5.872;2022-08-30T11:31:37;23.40;78.00
39019;DHT22;24786;51.984;5.872;2022-08-30T11:34:04;23.40;77.80
39019;DHT22;24786;51.984;5.872;2022-08-30T11:39:12;23.50;77.40
39019;DHT22;24786;51.984;5.872;2022-08-30T11:41:40;23.60;77.20
39019;DHT22;24786;51.984;5.872;2022-08-30T11:44:25;23.70;76.50
39019;DHT22;24786;51.984;5.872;2022-08-30T11:46:54;23.80;76.00
39019;DHT22;24786;51.984;5.872;2022-08-30T12:00:40;24.00;75.00
39019;DHT22;24786;51.984;5.872;2022-08-30T12:03:30;24.10;74.90
39019;DHT22;24786;51.984;5.872;2022-08-30T12:06:04;24.20;74.10
39019;DHT22;24786;51.984;5.872;2022-08-30T12:16:16;24.40;73.00
39019;DHT22;24786;51.984;5.872;2022-08-30T12:21:23;24.40;72.70
39019;DHT22;24786;51.984;5.872;2022-08-30T12:23:59;24.40;72.90
39019;DHT22;24786;51.984;5.872;2022-08-30T12:29:19;24.60;73.20
39019;DHT22;24786;51.984;5.872;2022-08-30T12:32:00;24.70;72.70
39019;DHT22;24786;51.984;5.872;2022-08-30T12:34:33;24.70;72.30
39019;DHT22;24786;51.984;5.872;2022-08-30T12:37:02;24.70;72.30
39019;DHT22;24786;51.984;5.872;2022-08-30T12:39:30;24.70;72.20
39019;DHT22;24786;51.984;5.872;2022-08-30T12:42:22;24.60;71.90
39019;DHT22;24786;51.984;5.872;2022-08-30T12:44:50;24.70;71.90
39019;DHT22;24786;51.984;5.872;2022-08-30T12:47:20;24.80;71.70
39019;DHT22;24786;51.984;5.872;2022-08-30T12:49:47;24.90;70.50
39019;DHT22;24786;51.984;5.872;2022-08-30T12:54:48;25.00;70.50
39019;DHT22;24786;51.984;5.872;2022-08-30T12:57:37;25.00;70.30
39019;DHT22;24786;51.984;5.872;2022-08-30T13:00:06;25.10;70.40
39019;DHT22;24786;51.984;5.872;2022-08-30T13:02:46;25.10;69.80
39019;DHT22;24786;51.984;5.872;2022-08-30T13:08:17;25.20;69.30
39019;DHT22;24786;51.984;5.872;2022-08-30T13:11:28;25.20;69.40
39019;DHT22;24786;51.984;5.872;2022-08-30T13:16:39;25.20;69.00
39019;DHT22;24786;51.984;5.872;2022-08-30T13:19:30;25.10;69.20
39019;DHT22;24786;51.984;5.872;2022-08-30T13:21:58;25.20;69.40
39019;DHT22;24786;51.984;5.872;2022-08-30T13:24:24;25.30;68.90
39019;DHT22;24786;51.984;5.872;2022-08-30T13:26:50;25.30;68.50
39019;DHT22;24786;51.984;5.872;2022-08-30T13:29:21;25.20;68.50
39019;DHT22;24786;51.984;5.872;2022-08-30T13:31:48;25.20;68.50
39019;DHT22;24786;51.984;5.872;2022-08-30T13:34:13;25.10;67.60
39019;DHT22;24786;51.984;5.872;2022-08-30T13:36:45;25.10;68.00
39019;DHT22;24786;51.984;5.872;2022-08-30T13:39:11;25.10;68.20
39019;DHT22;24786;51.984;5.872;2022-08-30T13:41:38;25.20;68.30
39019;DHT22;24786;51.984;5.872;2022-08-30T13:44:04;25.10;67.60
39019;DHT22;24786;51.984;5.872;2022-08-30T13:46:30;25.10;67.60
39019;DHT22;24786;51.984;5.872;2022-08-30T13:49:01;25.10;67.80
39019;DHT22;24786;51.984;5.872;2022-08-30T13:51:27;25.10;67.80
39019;DHT22;24786;51.984;5.872;2022-08-30T13:53:53;25.10;67.70
39019;DHT22;24786;51.984;5.872;2022-08-30T13:56:19;25.10;67.80
39019;DHT22;24786;51.984;5.872;2022-08-30T13:58:44;25.10;67.80
39019;DHT22;24786;51.984;5.872;2022-08-30T14:01:10;25.20;67.40
39019;DHT22;24786;51.984;5.872;2022-08-30T14:03:35;25.20;67.40
39019;DHT22;24786;51.984;5.872;2022-08-30T14:06:01;25.20;67.40
39019;DHT22;24786;51.984;5.872;2022-08-30T14:08:29;25.20;66.80
39019;DHT22;24786;51.984;5.872;2022-08-30T14:10:56;25.20;66.70
39019;DHT22;24786;51.984;5.872;2022-08-30T14:13:25;25.20;66.90
39019;DHT22;24786;51.984;5.872;2022-08-30T14:15:53;25.20;67.20
39019;DHT22;24786;51.984;5.872;2022-08-30T14:18:19;25.20;66.60
39019;DHT22;24786;51.984;5.872;2022-08-30T14:20:44;25.20;66.60
39019;DHT22;24786;51.984;5.872;2022-08-30T14:23:12;25.20;66.50
39019;DHT22;24786;51.984;5.872;2022-08-30T14:25:37;25.20;66.80
39019;DHT22;24786;51.984;5.872;2022-08-30T14:28:03;25.10;67.00
39019;DHT22;24786;51.984;5.872;2022-08-30T14:30:30;25.10;66.80
39019;DHT22;24786;51.984;5.872;2022-08-30T14:32:56;25.00;66.20
39019;DHT22;24786;51.984;5.872;2022-08-30T14:35:22;24.90;66.00
39019;DHT22;24786;51.984;5.872;2022-08-30T14:37:48;24.80;66.40
39019;DHT22;24786;51.984;5.872;2022-08-30T14:40:14;24.70;66.70
39019;DHT22;24786;51.984;5.872;2022-08-30T14:42:40;24.70;66.80
39019;DHT22;24786;51.984;5.872;2022-08-30T14:45:06;24.80;66.90
39019;DHT22;24786;51.984;5.872;2022-08-30T14:47:32;24.80;66.70
39019;DHT22;24786;51.984;5.872;2022-08-30T14:49:58;24.90;66.40
39019;DHT22;24786;51.984;5.872;2022-08-30T14:52:26;24.90;66.20
39019;DHT22;24786;51.984;5.872;2022-08-30T14:54:52;24.80;66.30
39019;DHT22;24786;51.984;5.872;2022-08-30T14:57:17;24.80;66.40
39019;DHT22;24786;51.984;5.872;2022-08-30T14:59:43;24.80;66.30
39019;DHT22;24786;51.984;5.872;2022-08-30T15:02:09;24.80;66.40
39019;DHT22;24786;51.984;5.872;2022-08-30T15:04:34;24.80;66.40
39019;DHT22;24786;51.984;5.872;2022-08-30T15:07:00;24.80;66.20
39019;DHT22;24786;51.984;5.872;2022-08-30T15:09:26;24.80;66.50
39019;DHT22;24786;51.984;5.872;2022-08-30T15:11:54;24.90;66.60
39019;DHT22;24786;51.984;5.872;2022-08-30T15:14:21;24.90;66.50
39019;DHT22;24786;51.984;5.872;2022-08-30T15:16:46;24.90;66.50
39019;DHT22;24786;51.984;5.872;2022-08-30T15:19:12;24.90;66.00
39019;DHT22;24786;51.984;5.872;2022-08-30T15:21:41;24.90;66.10
39019;DHT22;24786;51.984;5.872;2022-08-30T15:24:09;24.90;66.00
39019;DHT22;24786;51.984;5.872;2022-08-30T15:26:35;25.00;66.00
39019;DHT22;24786;51.984;5.872;2022-08-30T15:29:39;25.10;66.00
39019;DHT22;24786;51.984;5.872;2022-08-30T15:32:17;25.10;66.00
39019;DHT22;24786;51.984;5.872;2022-08-30T15:34:42;25.20;65.60
39019;DHT22;24786;51.984;5.872;2022-08-30T15:37:45;25.10;64.90
39019;DHT22;24786;51.984;5.872;2022-08-30T15:40:11;25.10;64.80
39019;DHT22;24786;51.984;5.872;2022-08-30T15:42:52;24.90;64.70
39019;DHT22;24786;51.984;5.872;2022-08-30T15:45:17;24.90;64.60
39019;DHT22;24786;51.984;5.872;2022-08-30T15:47:51;24.80;64.70
39019;DHT22;24786;51.984;5.872;2022-08-30T15:50:17;24.70;64.50
39019;DHT22;24786;51.984;5.872;2022-08-30T15:52:42;24.70;64.90
39019;DHT22;24786;51.984;5.872;2022-08-30T15:55:17;24.70;64.90
39019;DHT22;24786;51.984;5.872;2022-08-30T15:57:42;24.60;65.20
39019;DHT22;24786;51.984;5.872;2022-08-30T16:00:24;24.50;65.10
39019;DHT22;24786;51.984;5.872;2022-08-30T16:02:50;24.50;65.40
39019;DHT22;24786;51.984;5.872;2022-08-30T16:05:18;24.40;65.40
39019;DHT22;24786;51.984;5.872;2022-08-30T16:08:02;24.40;65.40
39019;DHT22;24786;51.984;5.872;2022-08-30T16:10:42;24.40;65.20
39019;DHT22;24786;51.984;5.872;2022-08-30T16:13:20;24.30;64.90
39019;DHT22;24786;51.984;5.872;2022-08-30T16:15:59;24.30;65.20
39019;DHT22;24786;51.984;5.872;2022-08-30T16:18:25;24.30;65.90
39019;DHT22;24786;51.984;5.872;2022-08-30T16:21:24;24.30;65.40
39019;DHT22;24786;51.984;5.872;2022-08-30T16:23:50;24.30;65.50
39019;DHT22;24786;51.984;5.872;2022-08-30T16:26:17;24.30;65.60
39019;DHT22;24786;51.984;5.872;2022-08-30T16:28:53;24.20;65.30
39019;DHT22;24786;51.984;5.872;2022-08-30T16:31:35;24.10;65.50
39019;DHT22;24786;51.984;5.872;2022-08-30T16:34:01;24.10;65.80
39019;DHT22;24786;51.984;5.872;2022-08-30T16:36:37;24.00;66.00
39019;DHT22;24786;51.984;5.872;2022-08-30T16:39:05;24.00;66.40
39019;DHT22;24786;51.984;5.872;2022-08-30T16:41:31;23.90;66.50
39019;DHT22;24786;51.984;5.872;2022-08-30T16:44:00;23.90;66.50
39019;DHT22;24786;51.984;5.872;2022-08-30T16:46:25;23.80;66.60
39019;DHT22;24786;51.984;5.872;2022-08-30T16:49:01;23.70;66.90
39019;DHT22;24786;51.984;5.872;2022-08-30T16:51:28;23.70;67.30
39019;DHT22;24786;51.984;5.872;2022-08-30T16:54:10;23.60;67.30
39019;DHT22;24786;51.984;5.872;2022-08-30T16:56:36;23.60;67.30
39019;DHT22;24786;51.984;5.872;2022-08-30T16:59:03;23.50;67.50
39019;DHT22;24786;51.984;5.872;2022-08-30T17:01:32;23.40;67.80
39019;DHT22;24786;51.984;5.872;2022-08-30T17:04:01;23.30;68.00
39019;DHT22;24786;51.984;5.872;2022-08-30T17:06:26;23.30;68.10
39019;DHT22;24786;51.984;5.872;2022-08-30T17:09:05;23.20;68.30
39019;DHT22;24786;51.984;5.872;2022-08-30T17:11:33;23.10;68.60
39019;DHT22;24786;51.984;5.872;2022-08-30T17:14:20;23.10;69.00